Time;durP1;ratioP1;P1;durP2;ratioP2;P2;SDS_P1;SDS_P2;PMS_P1;PMS_P2;Temp;Humidity;BMP_temperature;BMP_pressure;BME280_temperature;BME280_humidity;BME280_pressure;Samples;Min_cycle;Max_cycle;Signal;HPM_P1;HPM_P2
2022/06/29 00:00:49;;;;;;;;;;;16.30;99.90;;;;;;5035028;28;20012;-74
2022/06/29 00:03:15;;;;;;;;;;;16.40;99.90;;;;;;5023764;28;20004;-74
2022/06/29 00:05:40;;;;;;;;;;;16.40;99.90;;;;;;5024908;28;19913;-74
2022/06/29 00:08:06;;;;;;;;;;;16.40;99.90;;;;;;5031923;28;20339;-77
2022/06/29 00:10:32;;;;;;;;;;;16.40;99.90;;;;;;5031834;28;19913;-74
2022/06/29 00:12:57;;;;;;;;;;;16.40;99.90;;;;;;5034399;28;19917;-74
2022/06/29 00:15:23;;;;;;;;;;;16.40;99.90;;;;;;5034809;28;19952;-74
2022/06/29 00:17:48;;;;;;;;;;;16.40;99.90;;;;;;5029946;28;20448;-74
2022/06/29 00:20:14;;;;;;;;;;;16.40;99.90;;;;;;5032727;28;19921;-74
2022/06/29 00:22:40;;;;;;;;;;;16.30;99.90;;;;;;5036225;28;19924;-74
2022/06/29 00:25:06;;;;;;;;;;;16.30;99.90;;;;;;5036138;28;20228;-74
2022/06/29 00:27:32;;;;;;;;;;;16.40;99.90;;;;;;5029831;28;19917;-74
2022/06/29 00:29:58;;;;;;;;;;;16.40;99.90;;;;;;5035483;28;19924;-74
2022/06/29 00:32:24;;;;;;;;;;;16.40;99.90;;;;;;5027773;28;20302;-74
2022/06/29 00:34:49;;;;;;;;;;;16.40;99.90;;;;;;5036693;28;19913;-78
2022/06/29 00:37:15;;;;;;;;;;;16.30;99.90;;;;;;5031128;28;20296;-74
2022/06/29 00:39:41;;;;;;;;;;;16.30;99.90;;;;;;5031141;28;19988;-74
2022/06/29 00:42:06;;;;;;;;;;;16.30;99.90;;;;;;5024962;28;19921;-74
2022/06/29 00:44:32;;;;;;;;;;;16.30;99.90;;;;;;5027140;28;19937;-74
2022/06/29 00:46:59;;;;;;;;;;;16.30;99.90;;;;;;5028841;28;19937;-74
2022/06/29 00:49:26;;;;;;;;;;;16.30;99.90;;;;;;5034385;28;19929;-74
2022/06/29 00:52:02;;;;;;;;;;;16.20;99.90;;;;;;5034745;28;20342;-78
2022/06/29 00:54:29;;;;;;;;;;;16.20;99.90;;;;;;5024146;28;19914;-74
2022/06/29 00:56:55;;;;;;;;;;;16.20;99.90;;;;;;5032757;28;19921;-74
2022/06/29 00:59:24;;;;;;;;;;;16.20;99.90;;;;;;5028792;28;19917;-77
2022/06/29 01:01:50;;;;;;;;;;;16.10;99.90;;;;;;5011009;28;20240;-74
2022/06/29 01:04:15;;;;;;;;;;;16.10;99.90;;;;;;5031722;28;19913;-74
2022/06/29 01:06:41;;;;;;;;;;;16.10;99.90;;;;;;5031972;28;19913;-73
2022/06/29 01:09:07;;;;;;;;;;;16.10;99.90;;;;;;5029656;28;20008;-74
2022/06/29 01:11:33;;;;;;;;;;;16.10;99.90;;;;;;5032157;28;19933;-74
2022/06/29 01:13:59;;;;;;;;;;;16.10;99.90;;;;;;5021127;28;20008;-74
2022/06/29 01:16:24;;;;;;;;;;;16.00;99.90;;;;;;5018461;28;20356;-74
2022/06/29 01:18:50;;;;;;;;;;;16.10;99.90;;;;;;5035412;28;20012;-74
2022/06/29 01:21:18;;;;;;;;;;;16.00;99.90;;;;;;5036595;28;19925;-74
2022/06/29 01:23:43;;;;;;;;;;;16.00;99.90;;;;;;5034314;28;20257;-74
2022/06/29 01:26:11;;;;;;;;;;;15.90;99.90;;;;;;5033827;28;19951;-74
2022/06/29 01:28:43;;;;;;;;;;;15.90;99.90;;;;;;5034919;28;20190;-74
2022/06/29 01:31:12;;;;;;;;;;;16.00;99.90;;;;;;5035136;28;20372;-74
2022/06/29 01:33:37;;;;;;;;;;;16.00;99.90;;;;;;5034509;28;19913;-74
2022/06/29 01:36:03;;;;;;;;;;;15.90;99.90;;;;;;5027712;28;20008;-74
2022/06/29 01:38:28;;;;;;;;;;;15.90;99.90;;;;;;5033105;28;19968;-74
2022/06/29 01:40:54;;;;;;;;;;;15.80;99.90;;;;;;5034966;28;19932;-77
2022/06/29 01:43:20;;;;;;;;;;;15.80;99.90;;;;;;5064955;28;19925;-74
2022/06/29 01:45:45;;;;;;;;;;;15.80;99.90;;;;;;5032837;28;19921;-74
2022/06/29 01:48:11;;;;;;;;;;;15.80;99.90;;;;;;5023562;28;19916;-73
2022/06/29 01:50:36;;;;;;;;;;;15.80;99.90;;;;;;5033219;28;19940;-74
2022/06/29 01:53:02;;;;;;;;;;;15.80;99.90;;;;;;5066620;28;19913;-74
2022/06/29 01:55:27;;;;;;;;;;;15.80;99.90;;;;;;5063414;28;19921;-74
2022/06/29 01:57:53;;;;;;;;;;;15.80;99.90;;;;;;5034779;28;20327;-74
2022/06/29 02:00:18;;;;;;;;;;;15.80;99.90;;;;;;5063450;28;20369;-74
2022/06/29 02:02:44;;;;;;;;;;;15.70;99.90;;;;;;5030418;28;19995;-74
2022/06/29 02:05:09;;;;;;;;;;;15.70;99.90;;;;;;5030879;28;20000;-74
2022/06/29 02:07:35;;;;;;;;;;;15.70;99.90;;;;;;5026382;28;19917;-74
2022/06/29 02:10:00;;;;;;;;;;;15.70;99.90;;;;;;5032081;28;19959;-74
2022/06/29 02:12:26;;;;;;;;;;;15.60;99.90;;;;;;5024580;28;19928;-74
2022/06/29 02:14:52;;;;;;;;;;;15.60;99.90;;;;;;5034861;28;20326;-74
2022/06/29 02:17:19;;;;;;;;;;;15.60;99.90;;;;;;5028675;28;19913;-74
2022/06/29 02:19:45;;;;;;;;;;;15.60;99.90;;;;;;5034769;28;19928;-74
2022/06/29 02:22:11;;;;;;;;;;;15.60;99.90;;;;;;5032662;28;19917;-73
2022/06/29 02:24:36;;;;;;;;;;;15.50;99.90;;;;;;5032916;28;19913;-78
2022/06/29 02:27:02;;;;;;;;;;;15.40;99.90;;;;;;5026585;28;19958;-74
2022/06/29 02:29:28;;;;;;;;;;;15.40;99.90;;;;;;5034132;28;19952;-74
2022/06/29 02:34:43;;;;;;;;;;;15.30;99.90;;;;;;5028527;28;19963;-74
2022/06/29 02:37:09;;;;;;;;;;;15.30;99.90;;;;;;5026388;28;19929;-74
2022/06/29 02:39:35;;;;;;;;;;;15.30;99.90;;;;;;5033405;28;19921;-74
2022/06/29 02:42:00;;;;;;;;;;;15.30;99.90;;;;;;5030925;28;19917;-74
2022/06/29 02:44:26;;;;;;;;;;;15.20;99.90;;;;;;5033271;28;19959;-74
2022/06/29 02:46:51;;;;;;;;;;;15.20;99.90;;;;;;5027671;28;19940;-74
2022/06/29 02:49:17;;;;;;;;;;;15.20;99.90;;;;;;5032624;28;20212;-74
2022/06/29 02:51:43;;;;;;;;;;;15.20;99.90;;;;;;5032041;28;19913;-74
2022/06/29 02:54:08;;;;;;;;;;;15.20;99.90;;;;;;5031073;28;19913;-73
2022/06/29 02:56:34;;;;;;;;;;;15.20;99.90;;;;;;5049208;28;19932;-74
2022/06/29 02:58:59;;;;;;;;;;;15.20;99.90;;;;;;5032315;28;20228;-74
2022/06/29 03:01:25;;;;;;;;;;;15.20;99.90;;;;;;5033268;28;19917;-75
2022/06/29 03:03:50;;;;;;;;;;;15.20;99.90;;;;;;5032792;28;19913;-74
2022/06/29 03:06:16;;;;;;;;;;;15.20;99.90;;;;;;5064645;28;19963;-73
2022/06/29 03:08:41;;;;;;;;;;;15.10;99.90;;;;;;5033354;28;19913;-74
2022/06/29 03:11:07;;;;;;;;;;;15.10;99.90;;;;;;5027668;28;19925;-74
2022/06/29 03:13:33;;;;;;;;;;;15.00;99.90;;;;;;5061308;28;19917;-74
2022/06/29 03:15:58;;;;;;;;;;;15.10;99.90;;;;;;5029828;28;19917;-74
2022/06/29 03:18:24;;;;;;;;;;;15.10;99.90;;;;;;5033114;28;19967;-74
2022/06/29 03:20:49;;;;;;;;;;;15.10;99.90;;;;;;5034008;28;19924;-75
2022/06/29 03:23:15;;;;;;;;;;;15.10;99.90;;;;;;5032089;28;19955;-74
2022/06/29 03:25:41;;;;;;;;;;;15.10;99.90;;;;;;5033628;28;19936;-74
2022/06/29 03:28:06;;;;;;;;;;;15.20;99.90;;;;;;5061299;28;20223;-75
2022/06/29 03:30:32;;;;;;;;;;;15.20;99.90;;;;;;5032324;28;19913;-73
2022/06/29 03:32:58;;;;;;;;;;;15.10;99.90;;;;;;5032780;28;19915;-75
2022/06/29 03:35:23;;;;;;;;;;;15.20;99.90;;;;;;5034014;28;20055;-74
2022/06/29 03:37:50;;;;;;;;;;;15.20;99.90;;;;;;5032631;28;20012;-74
2022/06/29 03:40:16;;;;;;;;;;;15.30;99.90;;;;;;5030129;28;19920;-74
2022/06/29 03:42:42;;;;;;;;;;;15.30;99.90;;;;;;5025908;28;19916;-82
2022/06/29 03:45:08;;;;;;;;;;;15.30;99.90;;;;;;5031501;28;19917;-74
2022/06/29 03:47:33;;;;;;;;;;;15.30;99.90;;;;;;5029553;28;19935;-75
2022/06/29 03:49:59;;;;;;;;;;;15.30;99.90;;;;;;5031207;28;19975;-75
2022/06/29 03:52:25;;;;;;;;;;;15.30;99.90;;;;;;5033603;28;19956;-74
2022/06/29 03:54:50;;;;;;;;;;;15.40;99.90;;;;;;5031863;28;19967;-74
2022/06/29 03:57:16;;;;;;;;;;;15.40;99.90;;;;;;5029889;28;19967;-74
2022/06/29 03:59:41;;;;;;;;;;;15.40;99.90;;;;;;5027525;28;19968;-74
2022/06/29 04:02:07;;;;;;;;;;;15.40;99.90;;;;;;5030650;28;20315;-75
2022/06/29 04:04:32;;;;;;;;;;;15.40;99.90;;;;;;5032520;28;19914;-81
2022/06/29 04:06:58;;;;;;;;;;;15.40;99.90;;;;;;5032855;28;20019;-74
2022/06/29 04:09:23;;;;;;;;;;;15.50;99.90;;;;;;5032349;28;19917;-75
2022/06/29 04:11:49;;;;;;;;;;;15.40;99.90;;;;;;5033063;28;19974;-74
2022/06/29 04:14:22;;;;;;;;;;;15.50;99.90;;;;;;5033873;28;19917;-74
2022/06/29 04:16:48;;;;;;;;;;;15.40;99.90;;;;;;5031869;28;19917;-75
2022/06/29 04:19:14;;;;;;;;;;;15.40;99.90;;;;;;5031959;28;19967;-75
2022/06/29 04:21:40;;;;;;;;;;;15.40;99.90;;;;;;5034622;28;20220;-74
2022/06/29 04:24:05;;;;;;;;;;;15.40;99.90;;;;;;5031829;28;19920;-74
2022/06/29 04:26:31;;;;;;;;;;;15.40;99.90;;;;;;5033458;28;19917;-74
2022/06/29 04:28:57;;;;;;;;;;;15.40;99.90;;;;;;5033765;28;19917;-75
2022/06/29 04:31:22;;;;;;;;;;;15.40;99.90;;;;;;5033446;28;19920;-74
2022/06/29 04:33:48;;;;;;;;;;;15.40;99.90;;;;;;5027695;28;19924;-75
2022/06/29 04:36:13;;;;;;;;;;;15.40;99.90;;;;;;5020860;28;20342;-74
2022/06/29 04:38:39;;;;;;;;;;;15.40;99.90;;;;;;5033359;28;19971;-74
2022/06/29 04:41:05;;;;;;;;;;;15.40;99.90;;;;;;5034474;28;19921;-75
2022/06/29 04:43:30;;;;;;;;;;;15.50;99.90;;;;;;5030886;28;19936;-74
2022/06/29 04:48:41;;;;;;;;;;;15.70;99.90;;;;;;5018872;28;19954;-74
2022/06/29 04:51:06;;;;;;;;;;;15.70;99.90;;;;;;5030246;28;19913;-74
2022/06/29 04:53:32;;;;;;;;;;;15.90;99.90;;;;;;5033623;28;19957;-74
2022/06/29 04:55:58;;;;;;;;;;;15.80;99.90;;;;;;5031681;28;20011;-74
2022/06/29 04:58:23;;;;;;;;;;;15.90;99.90;;;;;;5033615;28;19917;-74
2022/06/29 05:00:49;;;;;;;;;;;16.00;99.90;;;;;;5032045;28;19967;-73
2022/06/29 05:03:14;;;;;;;;;;;16.10;99.90;;;;;;5034792;28;19948;-74
2022/06/29 05:05:40;;;;;;;;;;;16.10;99.90;;;;;;5030972;28;19914;-73
2022/06/29 05:08:06;;;;;;;;;;;16.20;99.90;;;;;;5034743;28;19917;-73
2022/06/29 05:10:31;;;;;;;;;;;16.20;99.90;;;;;;5032335;28;19921;-74
2022/06/29 05:12:57;;;;;;;;;;;16.30;99.90;;;;;;5034641;28;20296;-74
2022/06/29 05:15:22;;;;;;;;;;;16.30;99.90;;;;;;5030527;28;19921;-74
2022/06/29 05:17:48;;;;;;;;;;;16.40;99.90;;;;;;5028586;28;19988;-74
2022/06/29 05:20:14;;;;;;;;;;;16.50;99.90;;;;;;5031126;28;20008;-74
2022/06/29 05:22:39;;;;;;;;;;;16.50;99.90;;;;;;5034425;28;19961;-74
2022/06/29 05:25:05;;;;;;;;;;;16.60;99.90;;;;;;5033443;28;20220;-74
2022/06/29 05:27:31;;;;;;;;;;;16.70;99.90;;;;;;5033672;28;19920;-74
2022/06/29 05:29:57;;;;;;;;;;;16.80;99.90;;;;;;5035108;28;19914;-74
2022/06/29 05:32:22;;;;;;;;;;;16.90;99.90;;;;;;5032643;28;19967;-74
2022/06/29 05:34:48;;;;;;;;;;;16.90;99.90;;;;;;5032945;28;19913;-73
2022/06/29 05:37:13;;;;;;;;;;;17.00;99.90;;;;;;5029576;28;19921;-73
2022/06/29 05:39:39;;;;;;;;;;;17.20;99.90;;;;;;5018890;28;19921;-74
2022/06/29 05:42:05;;;;;;;;;;;17.30;99.90;;;;;;5028416;28;20006;-74
2022/06/29 05:44:30;;;;;;;;;;;17.30;99.90;;;;;;5023899;28;20007;-74
2022/06/29 05:46:56;;;;;;;;;;;17.40;99.90;;;;;;5024958;28;19920;-73
2022/06/29 05:49:21;;;;;;;;;;;17.50;99.90;;;;;;5033678;28;19913;-74
2022/06/29 05:51:47;;;;;;;;;;;17.60;99.90;;;;;;5030690;28;20016;-73
2022/06/29 05:54:12;;;;;;;;;;;17.70;99.90;;;;;;5024448;28;20021;-74
2022/06/29 05:56:38;;;;;;;;;;;17.80;99.90;;;;;;5033094;28;19919;-73
2022/06/29 05:59:03;;;;;;;;;;;17.80;99.90;;;;;;5033000;28;19913;-75
2022/06/29 06:01:29;;;;;;;;;;;17.90;99.90;;;;;;5033634;28;20308;-76
2022/06/29 06:03:54;;;;;;;;;;;18.00;99.90;;;;;;5032540;28;20328;-73
2022/06/29 06:06:20;;;;;;;;;;;18.10;99.90;;;;;;5032654;28;19913;-75
2022/06/29 06:08:45;;;;;;;;;;;18.10;99.90;;;;;;5031860;28;19975;-75
2022/06/29 06:11:11;;;;;;;;;;;18.20;99.90;;;;;;5032241;28;19927;-74
2022/06/29 06:13:37;;;;;;;;;;;18.20;99.90;;;;;;5034029;28;19917;-76
2022/06/29 06:16:03;;;;;;;;;;;18.30;99.90;;;;;;5033078;28;19913;-74
2022/06/29 06:18:28;;;;;;;;;;;18.30;99.90;;;;;;5034453;28;19962;-74
2022/06/29 06:20:54;;;;;;;;;;;18.40;99.90;;;;;;5031068;28;20375;-77
2022/06/29 06:23:20;;;;;;;;;;;18.50;99.90;;;;;;5033437;28;19920;-74
2022/06/29 06:25:46;;;;;;;;;;;18.50;99.90;;;;;;5033012;28;20304;-75
2022/06/29 06:28:12;;;;;;;;;;;18.60;99.90;;;;;;5029328;28;19944;-76
2022/06/29 06:30:37;;;;;;;;;;;18.70;99.90;;;;;;5029802;28;19925;-74
2022/06/29 06:33:03;;;;;;;;;;;18.80;99.90;;;;;;5031255;28;19925;-74
2022/06/29 06:35:30;;;;;;;;;;;18.90;99.90;;;;;;5064274;28;19917;-73
2022/06/29 06:37:55;;;;;;;;;;;19.00;99.90;;;;;;5032478;28;20192;-75
2022/06/29 06:43:05;;;;;;;;;;;19.10;99.90;;;;;;5031622;28;19928;-73
2022/06/29 06:45:31;;;;;;;;;;;19.20;99.90;;;;;;5033930;28;19913;-74
2022/06/29 06:47:57;;;;;;;;;;;19.30;99.90;;;;;;5033373;28;19928;-73
2022/06/29 06:50:23;;;;;;;;;;;19.40;99.90;;;;;;5032478;28;19917;-72
2022/06/29 06:52:48;;;;;;;;;;;19.50;99.90;;;;;;5034325;28;19917;-74
2022/06/29 06:55:14;;;;;;;;;;;19.50;99.90;;;;;;5024811;28;19917;-75
2022/06/29 06:57:39;;;;;;;;;;;19.60;99.90;;;;;;5024278;28;19983;-83
2022/06/29 07:00:05;;;;;;;;;;;19.70;99.90;;;;;;5032678;28;19917;-72
2022/06/29 07:02:31;;;;;;;;;;;19.90;99.90;;;;;;5032917;28;19956;-72
2022/06/29 07:04:57;;;;;;;;;;;20.00;99.90;;;;;;5034170;28;19967;-74
2022/06/29 07:07:22;;;;;;;;;;;20.00;99.90;;;;;;5032825;28;19959;-72
2022/06/29 07:09:48;;;;;;;;;;;20.10;99.90;;;;;;5032432;28;20296;-73
2022/06/29 07:12:13;;;;;;;;;;;20.30;99.90;;;;;;5033229;28;20393;-74
2022/06/29 07:14:39;;;;;;;;;;;20.40;99.90;;;;;;5032256;28;19940;-74
2022/06/29 07:17:04;;;;;;;;;;;20.40;99.90;;;;;;5031986;28;20339;-74
2022/06/29 07:19:30;;;;;;;;;;;20.50;99.90;;;;;;5030553;28;19928;-74
2022/06/29 07:21:55;;;;;;;;;;;20.60;99.90;;;;;;5031998;28;19917;-74
2022/06/29 07:24:21;;;;;;;;;;;20.60;99.90;;;;;;5032541;28;19921;-74
2022/06/29 07:26:46;;;;;;;;;;;20.70;99.90;;;;;;5031513;28;20426;-72
2022/06/29 07:29:12;;;;;;;;;;;20.90;99.90;;;;;;5031345;28;20543;-72
2022/06/29 07:31:37;;;;;;;;;;;21.10;99.90;;;;;;5031288;28;19974;-73
2022/06/29 07:34:04;;;;;;;;;;;21.20;99.90;;;;;;5032319;28;19913;-74
2022/06/29 07:36:30;;;;;;;;;;;21.30;99.90;;;;;;5030437;28;20015;-75
2022/06/29 07:38:56;;;;;;;;;;;21.50;99.90;;;;;;5033739;28;20312;-75
2022/06/29 07:41:21;;;;;;;;;;;21.60;99.90;;;;;;5031786;28;20304;-74
2022/06/29 07:43:47;;;;;;;;;;;21.70;99.90;;;;;;5031313;28;20220;-74
2022/06/29 07:46:13;;;;;;;;;;;21.90;99.90;;;;;;5035061;28;19936;-73
2022/06/29 07:48:38;;;;;;;;;;;22.00;99.90;;;;;;5036740;28;19928;-82
2022/06/29 07:51:04;;;;;;;;;;;22.10;99.90;;;;;;5035284;28;20026;-81
2022/06/29 07:53:29;;;;;;;;;;;22.30;99.90;;;;;;5036070;28;19921;-75
2022/06/29 07:55:55;;;;;;;;;;;22.40;99.90;;;;;;5035660;28;20312;-78
2022/06/29 07:58:21;;;;;;;;;;;22.70;99.90;;;;;;5025970;28;19920;-74
2022/06/29 08:00:47;;;;;;;;;;;23.00;99.90;;;;;;5026957;28;19921;-76
2022/06/29 08:03:12;;;;;;;;;;;23.30;99.90;;;;;;5033093;28;20012;-84
2022/06/29 08:05:38;;;;;;;;;;;23.60;99.90;;;;;;5036834;28;20374;-73
2022/06/29 08:08:04;;;;;;;;;;;24.10;99.90;;;;;;5035921;28;20005;-76
2022/06/29 08:10:31;;;;;;;;;;;24.30;99.90;;;;;;5035827;28;19965;-75
2022/06/29 08:12:57;;;;;;;;;;;24.70;99.90;;;;;;5035204;28;19913;-72
2022/06/29 08:15:22;;;;;;;;;;;25.00;99.90;;;;;;5036481;28;20344;-85
2022/06/29 08:17:48;;;;;;;;;;;25.20;99.90;;;;;;5035704;28;19917;-74
2022/06/29 08:20:14;;;;;;;;;;;25.50;99.90;;;;;;5035494;28;19996;-76
2022/06/29 08:22:40;;;;;;;;;;;25.70;98.90;;;;;;5033749;28;19940;-73
2022/06/29 08:25:09;;;;;;;;;;;25.90;98.00;;;;;;5034144;28;20364;-73
2022/06/29 08:27:34;;;;;;;;;;;25.90;97.80;;;;;;5035386;28;20145;-73
2022/06/29 08:30:00;;;;;;;;;;;25.90;98.30;;;;;;5036954;28;19917;-76
2022/06/29 08:32:26;;;;;;;;;;;25.60;97.20;;;;;;5031406;28;19967;-77
2022/06/29 08:34:52;;;;;;;;;;;25.30;97.50;;;;;;5032445;28;20008;-81
2022/06/29 08:37:18;;;;;;;;;;;25.30;98.00;;;;;;5034063;28;19959;-82
2022/06/29 08:39:43;;;;;;;;;;;25.60;97.80;;;;;;5035391;28;19999;-74
2022/06/29 08:42:10;;;;;;;;;;;25.80;97.70;;;;;;5033845;28;20011;-75
2022/06/29 08:44:37;;;;;;;;;;;25.90;97.40;;;;;;5036080;28;19959;-73
2022/06/29 08:47:06;;;;;;;;;;;26.00;96.70;;;;;;5033339;28;20202;-74
2022/06/29 08:49:32;;;;;;;;;;;26.30;97.70;;;;;;5051275;28;19921;-74
2022/06/29 08:51:58;;;;;;;;;;;26.50;97.80;;;;;;5033962;28;20004;-82
2022/06/29 08:54:25;;;;;;;;;;;26.90;96.00;;;;;;5033748;28;20117;-83
2022/06/29 08:56:54;;;;;;;;;;;26.90;96.30;;;;;;5033863;28;19917;-72
2022/06/29 08:59:21;;;;;;;;;;;26.90;95.00;;;;;;5030941;28;19921;-75
2022/06/29 09:01:47;;;;;;;;;;;27.10;96.30;;;;;;5030755;28;19917;-84
2022/06/29 09:04:13;;;;;;;;;;;27.30;96.20;;;;;;5033269;28;20201;-75
2022/06/29 09:06:38;;;;;;;;;;;27.70;95.50;;;;;;5022878;28;19927;-76
2022/06/29 09:09:04;;;;;;;;;;;28.20;95.70;;;;;;5034149;28;19921;-75
2022/06/29 09:11:31;;;;;;;;;;;28.60;94.40;;;;;;5033829;28;20008;-81
2022/06/29 09:14:10;;;;;;;;;;;28.80;93.20;;;;;;5034468;28;19913;-74
2022/06/29 09:16:54;;;;;;;;;;;28.50;93.00;;;;;;5034406;28;20219;-75
2022/06/29 09:19:20;;;;;;;;;;;28.20;92.70;;;;;;5035414;28;19922;-77
2022/06/29 09:21:47;;;;;;;;;;;28.60;94.70;;;;;;5034810;28;19940;-76
2022/06/29 09:24:13;;;;;;;;;;;29.00;93.20;;;;;;5032849;28;20127;-75
2022/06/29 09:26:39;;;;;;;;;;;29.40;92.70;;;;;;5034601;28;20275;-76
2022/06/29 09:29:17;;;;;;;;;;;29.60;94.10;;;;;;5035522;28;19917;-75
2022/06/29 09:31:43;;;;;;;;;;;30.00;93.00;;;;;;5033997;28;19967;-76
2022/06/29 09:34:19;;;;;;;;;;;30.30;92.70;;;;;;5027409;28;19960;-76
2022/06/29 09:36:54;;;;;;;;;;;30.60;91.50;;;;;;5033615;28;19921;-77
2022/06/29 09:39:36;;;;;;;;;;;30.80;92.40;;;;;;5033483;28;20020;-83
2022/06/29 09:42:02;;;;;;;;;;;30.90;92.60;;;;;;5034632;28;19917;-77
2022/06/29 09:44:28;;;;;;;;;;;31.30;92.20;;;;;;5032544;28;19913;-75
2022/06/29 09:46:54;;;;;;;;;;;31.30;92.30;;;;;;5033688;28;19944;-76
2022/06/29 09:49:25;;;;;;;;;;;31.40;90.20;;;;;;5033578;28;20021;-76
2022/06/29 09:51:55;;;;;;;;;;;31.30;90.70;;;;;;5033925;28;19917;-78
2022/06/29 09:54:22;;;;;;;;;;;31.30;88.70;;;;;;5033511;28;19935;-75
2022/06/29 09:56:49;;;;;;;;;;;30.90;89.70;;;;;;5033482;28;20479;-77
2022/06/29 10:02:34;;;;;;;;;;;30.10;90.10;;;;;;5033799;28;20347;-77
2022/06/29 10:05:06;;;;;;;;;;;30.00;92.00;;;;;;5032393;28;19917;-75
2022/06/29 10:07:32;;;;;;;;;;;30.30;90.90;;;;;;5022443;28;20303;-75
2022/06/29 10:09:58;;;;;;;;;;;30.50;89.90;;;;;;5025055;28;19913;-76
2022/06/29 10:15:48;;;;;;;;;;;30.40;90.60;;;;;;5028530;28;20028;-77
2022/06/29 10:18:22;;;;;;;;;;;30.70;90.10;;;;;;5032463;28;19913;-83
2022/06/29 10:20:48;;;;;;;;;;;30.90;88.90;;;;;;5032326;28;20368;-76
2022/06/29 10:23:32;;;;;;;;;;;30.90;89.70;;;;;;5032667;28;20000;-77
2022/06/29 10:26:00;;;;;;;;;;;30.70;85.40;;;;;;5031349;28;19928;-76
2022/06/29 10:28:25;;;;;;;;;;;30.70;88.90;;;;;;5030701;28;19940;-76
2022/06/29 10:30:53;;;;;;;;;;;30.90;88.10;;;;;;5030829;28;20525;-86
2022/06/29 10:33:35;;;;;;;;;;;31.20;88.90;;;;;;5046295;28;19968;-80
2022/06/29 10:36:05;;;;;;;;;;;31.40;88.60;;;;;;5033033;28;20291;-82
2022/06/29 10:38:34;;;;;;;;;;;31.70;86.30;;;;;;5027436;28;19917;-78
2022/06/29 10:41:08;;;;;;;;;;;31.40;89.80;;;;;;5032408;28;19913;-84
2022/06/29 10:43:36;;;;;;;;;;;31.70;89.60;;;;;;5029278;28;20305;-76
2022/06/29 10:46:02;;;;;;;;;;;32.10;87.10;;;;;;5029246;28;20305;-77
2022/06/29 10:48:31;;;;;;;;;;;32.10;88.90;;;;;;5032087;28;19959;-76
2022/06/29 10:50:56;;;;;;;;;;;31.70;83.20;;;;;;5035419;28;19909;-77
2022/06/29 10:53:22;;;;;;;;;;;31.00;86.50;;;;;;5031347;28;19920;-84
2022/06/29 10:55:49;;;;;;;;;;;30.40;86.50;;;;;;5030721;28;19920;-75
2022/06/29 10:58:15;;;;;;;;;;;30.30;87.60;;;;;;5032008;28;20304;-75
2022/06/29 11:00:42;;;;;;;;;;;30.40;90.40;;;;;;5034099;28;20370;-76
2022/06/29 11:03:16;;;;;;;;;;;30.40;89.20;;;;;;5033435;28;19921;-75
2022/06/29 11:13:58;;;;;;;;;;;31.50;83.90;;;;;;5024613;28;19983;-79
2022/06/29 11:16:28;;;;;;;;;;;31.30;84.50;;;;;;5032784;28;20316;-75
2022/06/29 11:18:56;;;;;;;;;;;31.30;90.30;;;;;;5029960;28;19914;-85
2022/06/29 11:21:23;;;;;;;;;;;31.60;91.20;;;;;;5032715;28;20019;-77
2022/06/29 11:24:02;;;;;;;;;;;31.70;89.60;;;;;;5031228;28;19943;-76
2022/06/29 11:26:28;;;;;;;;;;;32.00;86.60;;;;;;5031947;28;20354;-75
2022/06/29 11:28:54;;;;;;;;;;;32.30;85.60;;;;;;5031617;28;19917;-84
2022/06/29 11:31:20;;;;;;;;;;;32.50;84.50;;;;;;5032636;28;20312;-75
2022/06/29 11:33:50;;;;;;;;;;;32.10;83.30;;;;;;5032493;28;19927;-78
2022/06/29 11:36:17;;;;;;;;;;;31.50;87.30;;;;;;5030267;28;20015;-79
2022/06/29 11:38:43;;;;;;;;;;;31.20;90.60;;;;;;5030196;28;19967;-77
2022/06/29 11:41:13;;;;;;;;;;;31.20;89.20;;;;;;5033215;28;19921;-76
2022/06/29 11:43:40;;;;;;;;;;;31.50;87.20;;;;;;5033066;28;19921;-76
2022/06/29 11:46:16;;;;;;;;;;;31.00;84.00;;;;;;5033423;28;19917;-77
2022/06/29 11:49:33;;;;;;;;;;;30.00;85.40;;;;;;5030924;28;19913;-80
2022/06/29 11:51:33;;;;;;;;;;;29.70;87.30;;;;;;5030826;28;19913;-85
2022/06/29 11:54:05;;;;;;;;;;;29.90;87.00;;;;;;5031825;28;20004;-76
2022/06/29 11:56:31;;;;;;;;;;;30.30;85.80;;;;;;5032471;28;19914;-75
2022/06/29 11:59:01;;;;;;;;;;;30.10;84.60;;;;;;5064564;28;20228;-74
2022/06/29 12:01:27;;;;;;;;;;;30.10;85.50;;;;;;5031173;28;19971;-76
2022/06/29 12:03:56;;;;;;;;;;;30.30;88.30;;;;;;5032181;28;19920;-76
2022/06/29 12:06:23;;;;;;;;;;;30.30;86.90;;;;;;5028219;28;19927;-74
2022/06/29 12:08:49;;;;;;;;;;;29.80;87.30;;;;;;5031304;28;19921;-74
2022/06/29 12:11:15;;;;;;;;;;;29.20;86.90;;;;;;5034588;28;19925;-75
2022/06/29 12:13:41;;;;;;;;;;;29.20;91.90;;;;;;5021215;28;20311;-81
2022/06/29 12:16:06;;;;;;;;;;;29.40;91.20;;;;;;5029616;28;19913;-85
2022/06/29 12:18:32;;;;;;;;;;;29.70;91.90;;;;;;5032710;28;19920;-84
2022/06/29 12:20:58;;;;;;;;;;;29.90;87.50;;;;;;5029530;28;19909;-84
2022/06/29 12:23:23;;;;;;;;;;;29.70;87.30;;;;;;5032110;28;20560;-76
2022/06/29 12:25:49;;;;;;;;;;;29.60;90.50;;;;;;5020441;28;20212;-76
2022/06/29 12:28:15;;;;;;;;;;;29.70;90.70;;;;;;5033075;28;20387;-76
2022/06/29 12:30:40;;;;;;;;;;;29.50;90.60;;;;;;5027044;28;19913;-76
2022/06/29 12:33:09;;;;;;;;;;;29.50;92.10;;;;;;5042198;28;19913;-76
2022/06/29 12:35:35;;;;;;;;;;;29.30;91.10;;;;;;5036619;28;19971;-74
2022/06/29 12:38:01;;;;;;;;;;;29.40;90.00;;;;;;5025643;28;20300;-75
2022/06/29 12:40:27;;;;;;;;;;;29.60;91.70;;;;;;5033305;28;19963;-81
2022/06/29 12:42:52;;;;;;;;;;;30.10;90.40;;;;;;5035011;28;20263;-73
2022/06/29 12:45:18;;;;;;;;;;;30.20;86.80;;;;;;5032490;28;19999;-77
2022/06/29 12:47:44;;;;;;;;;;;30.20;90.00;;;;;;5029954;28;20221;-77
2022/06/29 12:50:10;;;;;;;;;;;30.40;90.70;;;;;;5035053;28;19913;-76
2022/06/29 12:52:40;;;;;;;;;;;30.50;90.20;;;;;;5034222;28;19917;-75
2022/06/29 12:55:07;;;;;;;;;;;30.40;88.10;;;;;;5028701;28;19924;-75
2022/06/29 12:57:33;;;;;;;;;;;30.20;86.70;;;;;;5035918;28;19909;-74
2022/06/29 12:59:58;;;;;;;;;;;30.20;87.90;;;;;;5031071;28;20022;-76
2022/06/29 13:02:24;;;;;;;;;;;30.10;91.70;;;;;;5032110;28;20271;-73
2022/06/29 13:04:49;;;;;;;;;;;30.10;89.10;;;;;;5034067;28;20361;-75
2022/06/29 13:07:15;;;;;;;;;;;29.90;87.60;;;;;;5029624;28;20007;-74
2022/06/29 13:09:40;;;;;;;;;;;29.40;89.40;;;;;;5035666;28;20004;-76
2022/06/29 13:12:06;;;;;;;;;;;28.90;89.60;;;;;;5030441;28;19960;-76
2022/06/29 13:14:31;;;;;;;;;;;28.70;90.20;;;;;;5036749;28;19913;-76
2022/06/29 13:16:57;;;;;;;;;;;28.50;90.80;;;;;;5035563;28;20004;-76
2022/06/29 13:19:22;;;;;;;;;;;28.70;91.10;;;;;;5026635;28;20534;-76
2022/06/29 13:21:48;;;;;;;;;;;29.00;91.50;;;;;;5033427;28;21482;-74
2022/06/29 13:24:14;;;;;;;;;;;29.50;91.40;;;;;;5027839;28;19995;-76
2022/06/29 13:26:39;;;;;;;;;;;30.00;90.50;;;;;;5028916;28;20216;-77
2022/06/29 13:29:05;;;;;;;;;;;30.30;89.50;;;;;;5036530;28;19924;-73
2022/06/29 13:31:32;;;;;;;;;;;30.60;90.40;;;;;;5035963;28;19913;-76
2022/06/29 13:33:57;;;;;;;;;;;30.60;90.50;;;;;;5028257;28;19917;-75
2022/06/29 13:36:23;;;;;;;;;;;30.60;88.90;;;;;;5023628;28;20320;-87
2022/06/29 13:38:49;;;;;;;;;;;30.40;89.30;;;;;;5033569;28;19961;-75
2022/06/29 13:41:19;;;;;;;;;;;30.50;88.90;;;;;;5025064;28;19968;-75
2022/06/29 13:43:45;;;;;;;;;;;30.60;90.40;;;;;;5024840;28;19924;-86
2022/06/29 13:46:11;;;;;;;;;;;30.40;87.80;;;;;;5023215;28;19968;-75
2022/06/29 13:48:36;;;;;;;;;;;30.00;90.80;;;;;;5030613;28;20224;-75
2022/06/29 13:51:02;;;;;;;;;;;29.50;89.20;;;;;;5027276;28;19992;-75
2022/06/29 13:53:29;;;;;;;;;;;29.10;90.50;;;;;;5032423;28;20262;-86
2022/06/29 13:55:54;;;;;;;;;;;28.70;91.80;;;;;;5032877;28;19916;-74
2022/06/29 13:58:21;;;;;;;;;;;28.30;92.60;;;;;;5034638;28;19924;-75
2022/06/29 14:00:47;;;;;;;;;;;28.20;93.90;;;;;;5031599;28;20355;-74
2022/06/29 14:03:13;;;;;;;;;;;28.40;92.00;;;;;;5028553;28;19921;-74
2022/06/29 14:05:39;;;;;;;;;;;28.30;93.30;;;;;;5031116;28;19922;-74
2022/06/29 14:08:05;;;;;;;;;;;28.30;94.60;;;;;;5032443;28;20241;-74
2022/06/29 14:10:30;;;;;;;;;;;28.50;93.80;;;;;;5031611;28;19917;-80
2022/06/29 14:12:56;;;;;;;;;;;28.90;93.30;;;;;;5028535;28;19921;-77
2022/06/29 14:15:21;;;;;;;;;;;29.00;92.80;;;;;;5029675;28;20260;-77
2022/06/29 14:17:47;;;;;;;;;;;29.00;92.50;;;;;;5031371;28;19913;-78
2022/06/29 14:20:12;;;;;;;;;;;28.70;93.10;;;;;;5034925;28;20067;-76
2022/06/29 14:22:38;;;;;;;;;;;28.20;93.10;;;;;;5032130;28;19921;-75
2022/06/29 14:25:07;;;;;;;;;;;27.50;93.10;;;;;;5030784;28;19917;-74
2022/06/29 14:27:33;;;;;;;;;;;27.10;94.00;;;;;;5030880;28;19913;-76
2022/06/29 14:29:58;;;;;;;;;;;26.70;94.60;;;;;;5033210;28;20296;-77
2022/06/29 14:32:24;;;;;;;;;;;26.70;94.90;;;;;;5030477;28;20307;-75
2022/06/29 14:34:50;;;;;;;;;;;26.40;94.70;;;;;;5031505;28;20304;-78